sensor_id;sensor_type;location;lat;lon;timestamp;temperature;humidity
76787;DHT22;65739;51.482;5.702;2022-12-11T00:02:04;0.80;99.90
76787;DHT22;65739;51.482;5.702;2022-12-11T00:04:30;0.80;99.90
76787;DHT22;65739;51.482;5.702;2022-12-11T00:06:56;0.80;99.90
76787;DHT22;65739;51.482;5.702;2022-12-11T00:09:25;0.80;99.90
76787;DHT22;65739;51.482;5.702;2022-12-11T00:11:50;0.80;99.90
76787;DHT22;65739;51.482;5.702;2022-12-11T00:14:16;0.80;99.90
76787;DHT22;65739;51.482;5.702;2022-12-11T00:16:42;0.80;99.90
76787;DHT22;65739;51.482;5.702;2022-12-11T00:19:08;0.80;99.90
76787;DHT22;65739;51.482;5.702;2022-12-11T00:21:34;0.80;99.90
76787;DHT22;65739;51.482;5.702;2022-12-11T00:24:00;0.80;99.90
76787;DHT22;65739;51.482;5.702;2022-12-11T00:26:29;0.90;99.90
76787;DHT22;65739;51.482;5.702;2022-12-11T00:28:58;0.90;99.90
76787;DHT22;65739;51.482;5.702;2022-12-11T00:31:24;0.80;99.90
76787;DHT22;65739;51.482;5.702;2022-12-11T00:33:50;0.80;99.90
76787;DHT22;65739;51.482;5.702;2022-12-11T00:36:22;0.90;99.90
76787;DHT22;65739;51.482;5.702;2022-12-11T00:38:52;0.80;99.90
76787;DHT22;65739;51.482;5.702;2022-12-11T00:41:18;0.90;99.90
76787;DHT22;65739;51.482;5.702;2022-12-11T00:43:45;0.90;99.90
76787;DHT22;65739;51.482;5.702;2022-12-11T00:46:11;0.90;99.90
76787;DHT22;65739;51.482;5.702;2022-12-11T00:48:38;0.90;99.90
76787;DHT22;65739;51.482;5.702;2022-12-11T00:51:04;0.90;99.90
76787;DHT22;65739;51.482;5.702;2022-12-11T00:53:33;0.90;99.90
76787;DHT22;65739;51.482;5.702;2022-12-11T00:56:07;0.90;99.90
76787;DHT22;65739;51.482;5.702;2022-12-11T00:58:33;0.90;99.90
76787;DHT22;65739;51.482;5.702;2022-12-11T01:01:12;0.90;99.90
76787;DHT22;65739;51.482;5.702;2022-12-11T01:03:38;0.90;99.90
76787;DHT22;65739;51.482;5.702;2022-12-11T01:06:14;0.90;99.90
76787;DHT22;65739;51.482;5.702;2022-12-11T01:08:43;0.90;99.90
76787;DHT22;65739;51.482;5.702;2022-12-11T01:11:15;0.90;99.90
76787;DHT22;65739;51.482;5.702;2022-12-11T01:13:44;0.90;99.90
76787;DHT22;65739;51.482;5.702;2022-12-11T01:16:16;0.90;99.90
76787;DHT22;65739;51.482;5.702;2022-12-11T01:18:42;0.90;99.90
76787;DHT22;65739;51.482;5.702;2022-12-11T01:21:11;0.90;99.90
76787;DHT22;65739;51.482;5.702;2022-12-11T01:26:17;0.90;99.90
76787;DHT22;65739;51.482;5.702;2022-12-11T01:29:07;0.90;99.90
76787;DHT22;65739;51.482;5.702;2022-12-11T01:31:33;0.90;99.90
76787;DHT22;65739;51.482;5.702;2022-12-11T01:34:10;0.90;99.90
76787;DHT22;65739;51.482;5.702;2022-12-11T01:36:37;1.00;99.90
76787;DHT22;65739;51.482;5.702;2022-12-11T01:39:02;1.00;99.90
76787;DHT22;65739;51.482;5.702;2022-12-11T01:41:32;0.90;99.90
76787;DHT22;65739;51.482;5.702;2022-12-11T01:46:53;1.00;99.90
76787;DHT22;65739;51.482;5.702;2022-12-11T01:49:24;1.00;99.90
76787;DHT22;65739;51.482;5.702;2022-12-11T01:51:58;1.00;99.90
76787;DHT22;65739;51.482;5.702;2022-12-11T01:54:26;1.00;99.90
76787;DHT22;65739;51.482;5.702;2022-12-11T01:56:54;1.10;99.90
76787;DHT22;65739;51.482;5.702;2022-12-11T01:59:23;1.00;99.90
76787;DHT22;65739;51.482;5.702;2022-12-11T02:01:57;1.10;99.90
76787;DHT22;65739;51.482;5.702;2022-12-11T02:04:25;1.00;99.90
76787;DHT22;65739;51.482;5.702;2022-12-11T02:06:55;1.00;99.90
76787;DHT22;65739;51.482;5.702;2022-12-11T02:09:26;1.00;99.90
76787;DHT22;65739;51.482;5.702;2022-12-11T02:21:52;1.00;99.90
76787;DHT22;65739;51.482;5.702;2022-12-11T02:27:32;1.10;99.90
76787;DHT22;65739;51.482;5.702;2022-12-11T02:30:03;1.10;99.90
76787;DHT22;65739;51.482;5.702;2022-12-11T02:32:46;1.10;99.90
76787;DHT22;65739;51.482;5.702;2022-12-11T02:35:34;1.10;99.90
76787;DHT22;65739;51.482;5.702;2022-12-11T02:38:12;1.10;99.90
76787;DHT22;65739;51.482;5.702;2022-12-11T02:40:40;1.10;99.90
76787;DHT22;65739;51.482;5.702;2022-12-11T02:43:14;1.10;99.90
76787;DHT22;65739;51.482;5.702;2022-12-11T02:45:44;1.10;99.90
76787;DHT22;65739;51.482;5.702;2022-12-11T02:48:19;1.20;99.90
76787;DHT22;65739;51.482;5.702;2022-12-11T02:50:51;1.10;99.90
76787;DHT22;65739;51.482;5.702;2022-12-11T02:53:19;1.10;99.90
76787;DHT22;65739;51.482;5.702;2022-12-11T02:55:49;1.10;99.90
76787;DHT22;65739;51.482;5.702;2022-12-11T02:58:21;1.20;99.90
76787;DHT22;65739;51.482;5.702;2022-12-11T03:00:54;1.20;99.90
76787;DHT22;65739;51.482;5.702;2022-12-11T03:03:21;1.20;99.90
76787;DHT22;65739;51.482;5.702;2022-12-11T03:05:50;1.20;99.90
76787;DHT22;65739;51.482;5.702;2022-12-11T03:08:16;1.20;99.90
76787;DHT22;65739;51.482;5.702;2022-12-11T03:10:45;1.20;99.90
76787;DHT22;65739;51.482;5.702;2022-12-11T03:13:17;1.20;99.90
76787;DHT22;65739;51.482;5.702;2022-12-11T03:18:40;1.20;99.90
76787;DHT22;65739;51.482;5.702;2022-12-11T03:27:09;1.30;99.90
76787;DHT22;65739;51.482;5.702;2022-12-11T03:29:47;1.20;99.90
76787;DHT22;65739;51.482;5.702;2022-12-11T03:32:24;1.20;99.90
76787;DHT22;65739;51.482;5.702;2022-12-11T03:35:05;1.20;99.90
76787;DHT22;65739;51.482;5.702;2022-12-11T03:37:34;1.20;99.90
76787;DHT22;65739;51.482;5.702;2022-12-11T03:40:06;1.20;99.90
76787;DHT22;65739;51.482;5.702;2022-12-11T03:42:36;1.20;99.90
76787;DHT22;65739;51.482;5.702;2022-12-11T03:45:07;1.20;99.90
76787;DHT22;65739;51.482;5.702;2022-12-11T03:47:33;1.20;99.90
76787;DHT22;65739;51.482;5.702;2022-12-11T03:50:02;1.10;99.90
76787;DHT22;65739;51.482;5.702;2022-12-11T03:52:32;1.20;99.90
76787;DHT22;65739;51.482;5.702;2022-12-11T03:55:08;1.20;99.90
76787;DHT22;65739;51.482;5.702;2022-12-11T03:57:37;1.20;99.90
76787;DHT22;65739;51.482;5.702;2022-12-11T04:00:15;1.10;99.90
76787;DHT22;65739;51.482;5.702;2022-12-11T04:02:49;1.10;99.90
76787;DHT22;65739;51.482;5.702;2022-12-11T04:05:34;1.20;99.90
76787;DHT22;65739;51.482;5.702;2022-12-11T04:08:00;1.10;99.90
76787;DHT22;65739;51.482;5.702;2022-12-11T04:10:27;1.20;99.90
76787;DHT22;65739;51.482;5.702;2022-12-11T04:12:55;1.20;99.90
76787;DHT22;65739;51.482;5.702;2022-12-11T04:15:21;1.20;99.90
76787;DHT22;65739;51.482;5.702;2022-12-11T04:17:47;1.20;99.90
76787;DHT22;65739;51.482;5.702;2022-12-11T04:20:32;1.30;99.90
76787;DHT22;65739;51.482;5.702;2022-12-11T04:23:17;1.30;99.90
76787;DHT22;65739;51.482;5.702;2022-12-11T04:26:04;1.20;99.90
76787;DHT22;65739;51.482;5.702;2022-12-11T04:28:30;1.20;99.90
76787;DHT22;65739;51.482;5.702;2022-12-11T04:30:56;1.30;99.90
76787;DHT22;65739;51.482;5.702;2022-12-11T04:33:29;1.20;99.90
76787;DHT22;65739;51.482;5.702;2022-12-11T04:35:59;1.20;99.90
76787;DHT22;65739;51.482;5.702;2022-12-11T04:38:34;1.20;99.90
76787;DHT22;65739;51.482;5.702;2022-12-11T04:41:03;1.30;99.90
76787;DHT22;65739;51.482;5.702;2022-12-11T04:43:33;1.30;99.90
76787;DHT22;65739;51.482;5.702;2022-12-11T04:46:10;1.30;99.90
76787;DHT22;65739;51.482;5.702;2022-12-11T04:49:02;1.30;99.90
76787;DHT22;65739;51.482;5.702;2022-12-11T04:51:28;1.30;99.90
76787;DHT22;65739;51.482;5.702;2022-12-11T04:53:54;1.30;99.90
76787;DHT22;65739;51.482;5.702;2022-12-11T04:56:23;1.20;99.90
76787;DHT22;65739;51.482;5.702;2022-12-11T04:58:49;1.20;99.90
76787;DHT22;65739;51.482;5.702;2022-12-11T05:01:23;1.20;99.90
76787;DHT22;65739;51.482;5.702;2022-12-11T05:03:49;1.20;99.90
76787;DHT22;65739;51.482;5.702;2022-12-11T05:06:15;1.20;99.90
76787;DHT22;65739;51.482;5.702;2022-12-11T05:08:42;1.20;99.90
76787;DHT22;65739;51.482;5.702;2022-12-11T05:11:10;1.20;99.90
76787;DHT22;65739;51.482;5.702;2022-12-11T05:13:37;1.20;99.90
76787;DHT22;65739;51.482;5.702;2022-12-11T05:16:25;1.20;99.90
76787;DHT22;65739;51.482;5.702;2022-12-11T05:18:51;1.20;99.90
76787;DHT22;65739;51.482;5.702;2022-12-11T05:21:16;1.30;99.90
76787;DHT22;65739;51.482;5.702;2022-12-11T05:23:42;1.30;99.90
76787;DHT22;65739;51.482;5.702;2022-12-11T05:26:13;1.30;99.90
76787;DHT22;65739;51.482;5.702;2022-12-11T05:28:43;1.20;99.90
76787;DHT22;65739;51.482;5.702;2022-12-11T05:31:14;1.20;99.90
76787;DHT22;65739;51.482;5.702;2022-12-11T05:33:42;1.20;99.90
76787;DHT22;65739;51.482;5.702;2022-12-11T05:36:09;1.20;99.90
76787;DHT22;65739;51.482;5.702;2022-12-11T05:38:38;1.10;99.90
76787;DHT22;65739;51.482;5.702;2022-12-11T05:41:05;1.20;99.90
76787;DHT22;65739;51.482;5.702;2022-12-11T05:43:34;1.20;99.90
76787;DHT22;65739;51.482;5.702;2022-12-11T05:46:08;1.20;99.90
76787;DHT22;65739;51.482;5.702;2022-12-11T05:48:35;1.20;99.90
76787;DHT22;65739;51.482;5.702;2022-12-11T05:51:02;1.20;99.90
76787;DHT22;65739;51.482;5.702;2022-12-11T05:53:28;1.20;99.90
76787;DHT22;65739;51.482;5.702;2022-12-11T05:55:54;1.20;99.90
76787;DHT22;65739;51.482;5.702;2022-12-11T05:58:32;1.20;99.90
76787;DHT22;65739;51.482;5.702;2022-12-11T06:00:59;1.20;99.90
76787;DHT22;65739;51.482;5.702;2022-12-11T06:03:25;1.20;99.90
76787;DHT22;65739;51.482;5.702;2022-12-11T06:05:51;1.20;99.90
76787;DHT22;65739;51.482;5.702;2022-12-11T06:08:17;1.20;99.90
76787;DHT22;65739;51.482;5.702;2022-12-11T06:10:49;1.20;99.90
76787;DHT22;65739;51.482;5.702;2022-12-11T06:13:16;1.20;99.90
76787;DHT22;65739;51.482;5.702;2022-12-11T06:15:43;1.20;99.90
76787;DHT22;65739;51.482;5.702;2022-12-11T06:18:09;1.20;99.90
76787;DHT22;65739;51.482;5.702;2022-12-11T06:20:35;1.20;99.90
76787;DHT22;65739;51.482;5.702;2022-12-11T06:23:07;1.20;99.90
76787;DHT22;65739;51.482;5.702;2022-12-11T06:25:36;1.30;99.90
76787;DHT22;65739;51.482;5.702;2022-12-11T06:28:03;1.20;99.90
76787;DHT22;65739;51.482;5.702;2022-12-11T06:30:29;1.30;99.90
76787;DHT22;65739;51.482;5.702;2022-12-11T06:33:07;1.20;99.90
76787;DHT22;65739;51.482;5.702;2022-12-11T06:35:35;1.30;99.90
76787;DHT22;65739;51.482;5.702;2022-12-11T06:38:02;1.30;99.90
76787;DHT22;65739;51.482;5.702;2022-12-11T06:40:28;1.30;99.90
76787;DHT22;65739;51.482;5.702;2022-12-11T06:42:54;1.30;99.90
76787;DHT22;65739;51.482;5.702;2022-12-11T06:45:20;1.20;99.90
76787;DHT22;65739;51.482;5.702;2022-12-11T06:47:49;1.20;99.90
76787;DHT22;65739;51.482;5.702;2022-12-11T06:50:15;1.20;99.90
76787;DHT22;65739;51.482;5.702;2022-12-11T06:52:43;1.20;99.90
76787;DHT22;65739;51.482;5.702;2022-12-11T06:55:09;1.20;99.90
76787;DHT22;65739;51.482;5.702;2022-12-11T06:57:35;1.20;99.90
76787;DHT22;65739;51.482;5.702;2022-12-11T07:00:03;1.30;99.90
76787;DHT22;65739;51.482;5.702;2022-12-11T07:02:29;1.30;99.90
76787;DHT22;65739;51.482;5.702;2022-12-11T07:04:55;1.30;99.90
76787;DHT22;65739;51.482;5.702;2022-12-11T07:07:21;1.30;99.90
76787;DHT22;65739;51.482;5.702;2022-12-11T07:09:47;1.30;99.90
76787;DHT22;65739;51.482;5.702;2022-12-11T07:12:12;1.40;99.90
76787;DHT22;65739;51.482;5.702;2022-12-11T07:14:38;1.30;99.90
76787;DHT22;65739;51.482;5.702;2022-12-11T07:17:04;1.40;99.90
76787;DHT22;65739;51.482;5.702;2022-12-11T07:19:30;1.30;99.90
76787;DHT22;65739;51.482;5.702;2022-12-11T07:22:14;1.40;99.90
76787;DHT22;65739;51.482;5.702;2022-12-11T07:27:16;1.40;99.90
76787;DHT22;65739;51.482;5.702;2022-12-11T07:29:42;1.30;99.90
76787;DHT22;65739;51.482;5.702;2022-12-11T07:32:08;1.30;99.90
76787;DHT22;65739;51.482;5.702;2022-12-11T07:34:34;1.30;99.90
76787;DHT22;65739;51.482;5.702;2022-12-11T07:37:02;1.30;99.90
76787;DHT22;65739;51.482;5.702;2022-12-11T07:39:48;1.30;99.90
76787;DHT22;65739;51.482;5.702;2022-12-11T07:42:14;1.30;99.90
76787;DHT22;65739;51.482;5.702;2022-12-11T07:44:40;1.40;99.90
76787;DHT22;65739;51.482;5.702;2022-12-11T07:47:06;1.40;99.90
76787;DHT22;65739;51.482;5.702;2022-12-11T07:49:43;1.30;99.90
76787;DHT22;65739;51.482;5.702;2022-12-11T07:52:09;1.30;99.90
76787;DHT22;65739;51.482;5.702;2022-12-11T07:54:34;1.30;99.90
76787;DHT22;65739;51.482;5.702;2022-12-11T07:57:00;1.30;99.90
76787;DHT22;65739;51.482;5.702;2022-12-11T07:59:42;1.30;99.90
76787;DHT22;65739;51.482;5.702;2022-12-11T08:02:11;1.30;99.90
76787;DHT22;65739;51.482;5.702;2022-12-11T08:04:39;1.30;99.90
76787;DHT22;65739;51.482;5.702;2022-12-11T08:07:05;1.40;99.90
76787;DHT22;65739;51.482;5.702;2022-12-11T08:09:34;1.40;99.90
76787;DHT22;65739;51.482;5.702;2022-12-11T08:12:00;1.40;99.90
76787;DHT22;65739;51.482;5.702;2022-12-11T08:14:29;1.40;99.90
76787;DHT22;65739;51.482;5.702;2022-12-11T08:17:32;1.40;99.90
76787;DHT22;65739;51.482;5.702;2022-12-11T08:20:17;1.40;99.90
76787;DHT22;65739;51.482;5.702;2022-12-11T08:23:01;1.40;99.90
76787;DHT22;65739;51.482;5.702;2022-12-11T08:26:05;1.40;99.90
76787;DHT22;65739;51.482;5.702;2022-12-11T08:32:19;1.40;99.90
76787;DHT22;65739;51.482;5.702;2022-12-11T08:35:18;1.40;99.90
76787;DHT22;65739;51.482;5.702;2022-12-11T08:38:08;1.50;99.90
76787;DHT22;65739;51.482;5.702;2022-12-11T08:43:45;1.50;99.90
76787;DHT22;65739;51.482;5.702;2022-12-11T08:46:12;1.60;99.90
76787;DHT22;65739;51.482;5.702;2022-12-11T08:48:41;1.50;99.90
76787;DHT22;65739;51.482;5.702;2022-12-11T08:51:11;1.60;99.90
76787;DHT22;65739;51.482;5.702;2022-12-11T08:53:40;1.60;99.90
76787;DHT22;65739;51.482;5.702;2022-12-11T08:56:10;1.60;99.90
76787;DHT22;65739;51.482;5.702;2022-12-11T08:58:36;1.60;99.90
76787;DHT22;65739;51.482;5.702;2022-12-11T09:01:16;1.60;99.90
76787;DHT22;65739;51.482;5.702;2022-12-11T09:03:42;1.60;99.90
76787;DHT22;65739;51.482;5.702;2022-12-11T09:06:25;1.60;99.90
76787;DHT22;65739;51.482;5.702;2022-12-11T09:08:53;1.70;99.90
76787;DHT22;65739;51.482;5.702;2022-12-11T09:11:28;1.60;99.90
76787;DHT22;65739;51.482;5.702;2022-12-11T09:17:21;1.60;99.90
76787;DHT22;65739;51.482;5.702;2022-12-11T09:20:07;1.60;99.90
76787;DHT22;65739;51.482;5.702;2022-12-11T09:22:33;1.60;99.90
76787;DHT22;65739;51.482;5.702;2022-12-11T09:25:03;1.60;99.90
76787;DHT22;65739;51.482;5.702;2022-12-11T09:27:30;1.70;99.90
76787;DHT22;65739;51.482;5.702;2022-12-11T09:29:56;1.70;99.90
76787;DHT22;65739;51.482;5.702;2022-12-11T09:32:24;1.70;99.90
76787;DHT22;65739;51.482;5.702;2022-12-11T09:34:50;1.70;99.90
76787;DHT22;65739;51.482;5.702;2022-12-11T09:37:22;1.70;99.90
76787;DHT22;65739;51.482;5.702;2022-12-11T09:39:49;1.70;99.90
76787;DHT22;65739;51.482;5.702;2022-12-11T09:44:49;1.60;99.90
76787;DHT22;65739;51.482;5.702;2022-12-11T09:47:35;1.60;99.90
76787;DHT22;65739;51.482;5.702;2022-12-11T09:50:31;1.70;99.90
76787;DHT22;65739;51.482;5.702;2022-12-11T09:55:48;1.70;99.90
76787;DHT22;65739;51.482;5.702;2022-12-11T10:01:34;1.80;99.90
76787;DHT22;65739;51.482;5.702;2022-12-11T10:04:14;1.80;99.90
76787;DHT22;65739;51.482;5.702;2022-12-11T10:09:59;1.70;99.90
76787;DHT22;65739;51.482;5.702;2022-12-11T10:13:03;1.70;99.90
76787;DHT22;65739;51.482;5.702;2022-12-11T10:18:03;1.70;99.90
76787;DHT22;65739;51.482;5.702;2022-12-11T10:20:33;1.70;99.90
76787;DHT22;65739;51.482;5.702;2022-12-11T10:23:06;1.80;99.90
76787;DHT22;65739;51.482;5.702;2022-12-11T10:25:41;1.80;99.90
76787;DHT22;65739;51.482;5.702;2022-12-11T10:28:18;1.80;99.90
76787;DHT22;65739;51.482;5.702;2022-12-11T10:35:51;1.80;99.90
76787;DHT22;65739;51.482;5.702;2022-12-11T10:38:29;1.80;99.90
76787;DHT22;65739;51.482;5.702;2022-12-11T10:40:58;1.80;99.90
76787;DHT22;65739;51.482;5.702;2022-12-11T10:43:38;1.90;99.90
76787;DHT22;65739;51.482;5.702;2022-12-11T10:46:21;1.90;99.90
76787;DHT22;65739;51.482;5.702;2022-12-11T10:48:51;1.90;99.90
76787;DHT22;65739;51.482;5.702;2022-12-11T10:51:23;1.90;99.90
76787;DHT22;65739;51.482;5.702;2022-12-11T10:53:55;2.00;99.90
76787;DHT22;65739;51.482;5.702;2022-12-11T10:56:26;2.00;99.90
76787;DHT22;65739;51.482;5.702;2022-12-11T10:58:54;2.00;99.90
76787;DHT22;65739;51.482;5.702;2022-12-11T11:01:26;2.10;99.90
76787;DHT22;65739;51.482;5.702;2022-12-11T11:04:30;2.00;99.90
76787;DHT22;65739;51.482;5.702;2022-12-11T11:07:20;2.00;99.90
76787;DHT22;65739;51.482;5.702;2022-12-11T11:09:48;2.10;99.90
76787;DHT22;65739;51.482;5.702;2022-12-11T11:12:25;2.10;99.90
76787;DHT22;65739;51.482;5.702;2022-12-11T11:15:03;2.20;99.90
76787;DHT22;65739;51.482;5.702;2022-12-11T11:17:32;2.20;99.90
76787;DHT22;65739;51.482;5.702;2022-12-11T11:20:12;2.30;99.90
76787;DHT22;65739;51.482;5.702;2022-12-11T11:22:45;2.20;99.90
76787;DHT22;65739;51.482;5.702;2022-12-11T11:25:18;2.20;99.90
76787;DHT22;65739;51.482;5.702;2022-12-11T11:27:59;2.20;99.90
76787;DHT22;65739;51.482;5.702;2022-12-11T11:30:31;2.20;99.90
76787;DHT22;65739;51.482;5.702;2022-12-11T11:33:11;2.20;99.90
76787;DHT22;65739;51.482;5.702;2022-12-11T11:35:49;2.20;99.90
76787;DHT22;65739;51.482;5.702;2022-12-11T11:38:18;2.30;99.90
76787;DHT22;65739;51.482;5.702;2022-12-11T11:40:58;2.30;99.90
76787;DHT22;65739;51.482;5.702;2022-12-11T11:46:22;2.30;99.90
76787;DHT22;65739;51.482;5.702;2022-12-11T11:49:06;2.20;99.90
76787;DHT22;65739;51.482;5.702;2022-12-11T11:51:55;2.20;99.90
76787;DHT22;65739;51.482;5.702;2022-12-11T11:54:33;2.20;99.90
76787;DHT22;65739;51.482;5.702;2022-12-11T11:59:58;2.30;99.90
76787;DHT22;65739;51.482;5.702;2022-12-11T12:02:33;2.30;99.90
76787;DHT22;65739;51.482;5.702;2022-12-11T12:05:01;2.30;99.90
76787;DHT22;65739;51.482;5.702;2022-12-11T12:07:41;2.20;99.90
76787;DHT22;65739;51.482;5.702;2022-12-11T12:10:20;2.20;99.90
76787;DHT22;65739;51.482;5.702;2022-12-11T12:13:09;2.10;99.90
76787;DHT22;65739;51.482;5.702;2022-12-11T12:15:58;2.20;99.90
76787;DHT22;65739;51.482;5.702;2022-12-11T12:21:50;2.30;99.90
76787;DHT22;65739;51.482;5.702;2022-12-11T12:24:35;2.40;99.90
76787;DHT22;65739;51.482;5.702;2022-12-11T12:27:12;2.50;99.90
76787;DHT22;65739;51.482;5.702;2022-12-11T12:30:04;2.50;99.90
76787;DHT22;65739;51.482;5.702;2022-12-11T12:32:55;2.50;99.90
76787;DHT22;65739;51.482;5.702;2022-12-11T12:35:34;2.40;99.90
76787;DHT22;65739;51.482;5.702;2022-12-11T12:43:47;2.30;99.90
76787;DHT22;65739;51.482;5.702;2022-12-11T12:46:42;2.40;99.90
76787;DHT22;65739;51.482;5.702;2022-12-11T12:51:52;2.60;99.90
76787;DHT22;65739;51.482;5.702;2022-12-11T12:54:18;2.70;99.90
76787;DHT22;65739;51.482;5.702;2022-12-11T12:56:45;2.80;99.90
76787;DHT22;65739;51.482;5.702;2022-12-11T12:59:23;2.80;99.90
76787;DHT22;65739;51.482;5.702;2022-12-11T13:01:54;3.00;99.90
76787;DHT22;65739;51.482;5.702;2022-12-11T13:07:17;2.90;99.90
76787;DHT22;65739;51.482;5.702;2022-12-11T13:09:55;2.90;99.90
76787;DHT22;65739;51.482;5.702;2022-12-11T13:12:41;2.80;99.90
76787;DHT22;65739;51.482;5.702;2022-12-11T13:15:33;2.80;99.90
76787;DHT22;65739;51.482;5.702;2022-12-11T13:18:00;2.80;99.90
76787;DHT22;65739;51.482;5.702;2022-12-11T13:20:29;2.70;99.90
76787;DHT22;65739;51.482;5.702;2022-12-11T13:25:44;2.60;99.90
76787;DHT22;65739;51.482;5.702;2022-12-11T13:28:28;2.70;99.90
76787;DHT22;65739;51.482;5.702;2022-12-11T13:31:29;2.70;99.90
76787;DHT22;65739;51.482;5.702;2022-12-11T13:34:01;2.70;99.90
76787;DHT22;65739;51.482;5.702;2022-12-11T13:36:30;2.70;99.90
76787;DHT22;65739;51.482;5.702;2022-12-11T13:39:04;2.70;99.90
76787;DHT22;65739;51.482;5.702;2022-12-11T13:41:34;2.60;99.90
76787;DHT22;65739;51.482;5.702;2022-12-11T13:44:04;2.50;99.90
76787;DHT22;65739;51.482;5.702;2022-12-11T13:46:35;2.40;99.90
76787;DHT22;65739;51.482;5.702;2022-12-11T13:49:04;2.40;99.90
76787;DHT22;65739;51.482;5.702;2022-12-11T13:51:34;2.40;99.90
76787;DHT22;65739;51.482;5.702;2022-12-11T13:54:11;2.40;99.90
76787;DHT22;65739;51.482;5.702;2022-12-11T13:56:38;2.40;99.90
76787;DHT22;65739;51.482;5.702;2022-12-11T13:59:04;2.40;99.90
76787;DHT22;65739;51.482;5.702;2022-12-11T14:01:32;2.40;99.90
76787;DHT22;65739;51.482;5.702;2022-12-11T14:04:03;2.30;99.90
76787;DHT22;65739;51.482;5.702;2022-12-11T14:06:32;2.30;99.90
76787;DHT22;65739;51.482;5.702;2022-12-11T14:09:00;2.30;99.90
76787;DHT22;65739;51.482;5.702;2022-12-11T14:11:34;2.30;99.90
76787;DHT22;65739;51.482;5.702;2022-12-11T14:14:03;2.30;99.90
76787;DHT22;65739;51.482;5.702;2022-12-11T14:16:30;2.30;99.90
76787;DHT22;65739;51.482;5.702;2022-12-11T14:19:03;2.30;99.90
76787;DHT22;65739;51.482;5.702;2022-12-11T14:21:29;2.30;99.90
76787;DHT22;65739;51.482;5.702;2022-12-11T14:23:58;2.30;99.90
76787;DHT22;65739;51.482;5.702;2022-12-11T14:26:32;2.20;99.90
76787;DHT22;65739;51.482;5.702;2022-12-11T14:28:59;2.10;99.90
76787;DHT22;65739;51.482;5.702;2022-12-11T14:31:33;2.10;99.90
76787;DHT22;65739;51.482;5.702;2022-12-11T14:34:12;2.10;99.90
76787;DHT22;65739;51.482;5.702;2022-12-11T14:36:40;2.10;99.90
76787;DHT22;65739;51.482;5.702;2022-12-11T14:39:18;2.10;99.90
76787;DHT22;65739;51.482;5.702;2022-12-11T14:41:48;2.00;99.90
76787;DHT22;65739;51.482;5.702;2022-12-11T14:44:20;1.90;99.90
76787;DHT22;65739;51.482;5.702;2022-12-11T14:46:54;1.90;99.90
76787;DHT22;65739;51.482;5.702;2022-12-11T14:49:48;1.80;99.90
76787;DHT22;65739;51.482;5.702;2022-12-11T14:52:22;1.80;99.90
76787;DHT22;65739;51.482;5.702;2022-12-11T14:54:53;1.80;99.90
76787;DHT22;65739;51.482;5.702;2022-12-11T14:57:24;1.70;99.90
76787;DHT22;65739;51.482;5.702;2022-12-11T14:59:52;1.70;99.90
76787;DHT22;65739;51.482;5.702;2022-12-11T15:02:31;1.70;99.90
76787;DHT22;65739;51.482;5.702;2022-12-11T15:05:14;1.70;99.90
76787;DHT22;65739;51.482;5.702;2022-12-11T15:07:52;1.70;99.90
76787;DHT22;65739;51.482;5.702;2022-12-11T15:10:39;1.80;99.90
76787;DHT22;65739;51.482;5.702;2022-12-11T15:13:08;1.70;99.90
76787;DHT22;65739;51.482;5.702;2022-12-11T15:15:45;1.70;99.90
76787;DHT22;65739;51.482;5.702;2022-12-11T15:18:29;1.60;99.90
76787;DHT22;65739;51.482;5.702;2022-12-11T15:21:17;1.60;99.90
76787;DHT22;65739;51.482;5.702;2022-12-11T15:23:55;1.60;99.90
76787;DHT22;65739;51.482;5.702;2022-12-11T15:31:47;1.60;99.90
76787;DHT22;65739;51.482;5.702;2022-12-11T15:34:23;1.50;99.90
76787;DHT22;65739;51.482;5.702;2022-12-11T15:36:49;1.50;99.90
76787;DHT22;65739;51.482;5.702;2022-12-11T15:39:14;1.50;99.90
76787;DHT22;65739;51.482;5.702;2022-12-11T15:41:43;1.50;99.90
76787;DHT22;65739;51.482;5.702;2022-12-11T15:44:35;1.50;99.90
76787;DHT22;65739;51.482;5.702;2022-12-11T15:47:24;1.50;99.90
76787;DHT22;65739;51.482;5.702;2022-12-11T15:49:53;1.50;99.90
76787;DHT22;65739;51.482;5.702;2022-12-11T15:52:20;1.50;99.90
76787;DHT22;65739;51.482;5.702;2022-12-11T15:54:46;1.50;99.90
76787;DHT22;65739;51.482;5.702;2022-12-11T15:57:16;1.50;99.90
76787;DHT22;65739;51.482;5.702;2022-12-11T15:59:43;1.50;99.90
76787;DHT22;65739;51.482;5.702;2022-12-11T16:02:13;1.50;99.90
76787;DHT22;65739;51.482;5.702;2022-12-11T16:04:39;1.50;99.90
76787;DHT22;65739;51.482;5.702;2022-12-11T16:07:17;1.40;99.90
76787;DHT22;65739;51.482;5.702;2022-12-11T16:09:44;1.40;99.90
76787;DHT22;65739;51.482;5.702;2022-12-11T16:12:10;1.40;99.90
76787;DHT22;65739;51.482;5.702;2022-12-11T16:14:36;1.40;99.90
76787;DHT22;65739;51.482;5.702;2022-12-11T16:17:04;1.40;99.90
76787;DHT22;65739;51.482;5.702;2022-12-11T16:19:39;1.30;99.90
76787;DHT22;65739;51.482;5.702;2022-12-11T16:22:06;1.30;99.90
76787;DHT22;65739;51.482;5.702;2022-12-11T16:24:36;1.40;99.90
76787;DHT22;65739;51.482;5.702;2022-12-11T16:27:27;1.40;99.90
76787;DHT22;65739;51.482;5.702;2022-12-11T16:29:53;1.40;99.90
76787;DHT22;65739;51.482;5.702;2022-12-11T16:32:57;1.40;99.90
76787;DHT22;65739;51.482;5.702;2022-12-11T16:35:34;1.40;99.90
76787;DHT22;65739;51.482;5.702;2022-12-11T16:38:00;1.40;99.90
76787;DHT22;65739;51.482;5.702;2022-12-11T16:40:26;1.40;99.90
76787;DHT22;65739;51.482;5.702;2022-12-11T16:42:52;1.40;99.90
76787;DHT22;65739;51.482;5.702;2022-12-11T16:48:48;1.40;99.90
76787;DHT22;65739;51.482;5.702;2022-12-11T16:51:14;1.40;99.90
76787;DHT22;65739;51.482;5.702;2022-12-11T16:53:43;1.40;99.90
76787;DHT22;65739;51.482;5.702;2022-12-11T16:56:09;1.40;99.90
76787;DHT22;65739;51.482;5.702;2022-12-11T16:58:34;1.40;99.90
76787;DHT22;65739;51.482;5.702;2022-12-11T17:01:07;1.40;99.90
76787;DHT22;65739;51.482;5.702;2022-12-11T17:03:42;1.40;99.90
76787;DHT22;65739;51.482;5.702;2022-12-11T17:06:11;1.40;99.90
76787;DHT22;65739;51.482;5.702;2022-12-11T17:08:37;1.40;99.90
76787;DHT22;65739;51.482;5.702;2022-12-11T17:11:11;1.40;99.90
76787;DHT22;65739;51.482;5.702;2022-12-11T17:13:37;1.40;99.90
76787;DHT22;65739;51.482;5.702;2022-12-11T17:16:10;1.40;99.90
76787;DHT22;65739;51.482;5.702;2022-12-11T17:18:39;1.40;99.90
76787;DHT22;65739;51.482;5.702;2022-12-11T17:21:13;1.40;99.90
76787;DHT22;65739;51.482;5.702;2022-12-11T17:23:39;1.30;99.90
76787;DHT22;65739;51.482;5.702;2022-12-11T17:26:06;1.40;99.90
76787;DHT22;65739;51.482;5.702;2022-12-11T17:28:40;1.40;99.90
76787;DHT22;65739;51.482;5.702;2022-12-11T17:31:17;1.40;99.90
76787;DHT22;65739;51.482;5.702;2022-12-11T17:33:44;1.40;99.90
76787;DHT22;65739;51.482;5.702;2022-12-11T17:36:14;1.30;99.90
76787;DHT22;65739;51.482;5.702;2022-12-11T17:38:40;1.40;99.90
76787;DHT22;65739;51.482;5.702;2022-12-11T17:41:07;1.30;99.90
76787;DHT22;65739;51.482;5.702;2022-12-11T17:43:33;1.40;99.90
76787;DHT22;65739;51.482;5.702;2022-12-11T17:45:59;1.30;99.90
76787;DHT22;65739;51.482;5.702;2022-12-11T17:48:25;1.30;99.90